Time;durP1;ratioP1;P1;durP2;ratioP2;P2;SDS_P1;SDS_P2;PMS_P1;PMS_P2;Temp;Humidity;BMP_temperature;BMP_pressure;BME280_temperature;BME280_humidity;BME280_pressure;Samples;Min_cycle;Max_cycle;Signal;HPM_P1;HPM_P2
2022/03/15 00:01:36;;;;;;;0.17;0.17;;;;;;;;;;4996716;28;20625;-66
2022/03/15 00:04:04;;;;;;;0.10;0.10;;;;;;;;;;4993996;28;20697;-66
2022/03/15 00:06:34;;;;;;;0.20;0.20;;;;;;;;;;4991362;28;20623;-66
2022/03/15 00:09:01;;;;;;;0.10;0.10;;;;;;;;;;5001825;28;20735;-66
2022/03/15 00:11:30;;;;;;;0.20;0.20;;;;;;;;;;4990772;28;20730;-66
2022/03/15 00:13:58;;;;;;;0.10;0.10;;;;;;;;;;5005546;28;20718;-66
2022/03/15 00:16:25;;;;;;;0.20;0.20;;;;;;;;;;5006107;28;20649;-66
2022/03/15 00:18:53;;;;;;;0.20;0.20;;;;;;;;;;4988582;28;20624;-65
2022/03/15 00:21:20;;;;;;;0.10;0.10;;;;;;;;;;5005956;28;20611;-65
2022/03/15 00:23:49;;;;;;;0.20;0.20;;;;;;;;;;4989492;28;20623;-65
2022/03/15 00:26:17;;;;;;;0.20;0.20;;;;;;;;;;4990534;28;20627;-65
2022/03/15 00:28:44;;;;;;;0.20;0.20;;;;;;;;;;4984594;28;20644;-65
2022/03/15 00:31:11;;;;;;;0.10;0.10;;;;;;;;;;4992077;28;20635;-65
2022/03/15 00:33:39;;;;;;;0.20;0.20;;;;;;;;;;4988216;28;20707;-65
2022/03/15 00:36:07;;;;;;;0.20;0.20;;;;;;;;;;4989057;28;20643;-66
2022/03/15 00:38:35;;;;;;;0.20;0.20;;;;;;;;;;4987200;28;20720;-65
2022/03/15 00:41:03;;;;;;;0.20;0.20;;;;;;;;;;4983669;28;20635;-65
2022/03/15 00:43:35;;;;;;;0.20;0.20;;;;;;;;;;4989672;28;21204;-66
2022/03/15 00:46:02;;;;;;;0.10;0.10;;;;;;;;;;4990487;28;20686;-66
2022/03/15 00:48:29;;;;;;;0.20;0.20;;;;;;;;;;4992359;28;20651;-65
2022/03/15 00:50:57;;;;;;;0.17;0.17;;;;;;;;;;4989071;28;20633;-66
2022/03/15 00:53:24;;;;;;;0.20;0.20;;;;;;;;;;5010867;28;20728;-66
2022/03/15 00:55:52;;;;;;;0.20;0.20;;;;;;;;;;4992413;28;20627;-66
2022/03/15 00:58:20;;;;;;;0.20;0.20;;;;;;;;;;4994895;28;20651;-66
2022/03/15 01:00:48;;;;;;;0.20;0.20;;;;;;;;;;4992509;28;20654;-65
2022/03/15 01:03:16;;;;;;;0.20;0.20;;;;;;;;;;4986523;28;20620;-65
2022/03/15 01:05:44;;;;;;;0.10;0.10;;;;;;;;;;4985930;28;20722;-65
2022/03/15 01:08:14;;;;;;;0.20;0.20;;;;;;;;;;4990198;28;20659;-66
2022/03/15 01:10:42;;;;;;;0.10;0.10;;;;;;;;;;5005053;28;20604;-66
2022/03/15 01:13:10;;;;;;;0.10;0.10;;;;;;;;;;4991658;28;20655;-65
2022/03/15 01:15:41;;;;;;;0.20;0.20;;;;;;;;;;5007424;28;20615;-66
2022/03/15 01:18:08;;;;;;;0.20;0.20;;;;;;;;;;4990239;28;20663;-65
2022/03/15 01:20:35;;;;;;;0.10;0.10;;;;;;;;;;4990637;28;20621;-65
2022/03/15 01:23:03;;;;;;;0.17;0.17;;;;;;;;;;4998859;28;20614;-66
2022/03/15 01:25:30;;;;;;;0.20;0.20;;;;;;;;;;4983181;28;20670;-66
2022/03/15 01:27:58;;;;;;;0.20;0.20;;;;;;;;;;4984399;28;20686;-66
2022/03/15 01:30:25;;;;;;;0.20;0.20;;;;;;;;;;4986386;28;20638;-66
2022/03/15 01:32:54;;;;;;;0.20;0.20;;;;;;;;;;4989560;28;21192;-65
2022/03/15 01:35:21;;;;;;;0.20;0.20;;;;;;;;;;4986858;28;20635;-65
2022/03/15 01:37:49;;;;;;;0.10;0.10;;;;;;;;;;4988156;28;20699;-65
2022/03/15 01:40:16;;;;;;;0.20;0.20;;;;;;;;;;4986948;28;20651;-65
2022/03/15 01:42:44;;;;;;;0.17;0.17;;;;;;;;;;4988235;28;20631;-65
2022/03/15 01:45:12;;;;;;;0.10;0.10;;;;;;;;;;4990690;28;21011;-65
2022/03/15 01:47:42;;;;;;;0.20;0.20;;;;;;;;;;4992757;28;20710;-65
2022/03/15 01:50:11;;;;;;;0.17;0.17;;;;;;;;;;5009760;28;20705;-65
2022/03/15 01:52:41;;;;;;;0.20;0.20;;;;;;;;;;4989473;28;20625;-65
2022/03/15 01:55:09;;;;;;;0.17;0.17;;;;;;;;;;4989606;28;20657;-65
2022/03/15 01:57:37;;;;;;;0.10;0.10;;;;;;;;;;4990265;28;20659;-65
2022/03/15 02:00:04;;;;;;;0.20;0.20;;;;;;;;;;4992776;28;20660;-65
2022/03/15 02:02:32;;;;;;;0.20;0.20;;;;;;;;;;4988247;28;20634;-65
2022/03/15 02:04:59;;;;;;;0.20;0.20;;;;;;;;;;4997356;28;20616;-65
2022/03/15 02:07:27;;;;;;;0.20;0.20;;;;;;;;;;4992976;28;20659;-65
2022/03/15 02:09:55;;;;;;;0.20;0.20;;;;;;;;;;4991702;28;20663;-65
2022/03/15 02:12:22;;;;;;;0.20;0.20;;;;;;;;;;4991084;28;20689;-65
2022/03/15 02:14:50;;;;;;;0.10;0.10;;;;;;;;;;5005484;28;20622;-65
2022/03/15 02:17:17;;;;;;;0.20;0.20;;;;;;;;;;4989424;28;20670;-65
2022/03/15 02:19:45;;;;;;;0.20;0.20;;;;;;;;;;4990879;28;20659;-65
2022/03/15 02:22:14;;;;;;;0.23;0.23;;;;;;;;;;4994245;28;20703;-65
2022/03/15 02:24:42;;;;;;;0.10;0.10;;;;;;;;;;5006466;28;20671;-65
2022/03/15 02:27:12;;;;;;;0.20;0.20;;;;;;;;;;5012755;28;20662;-65
2022/03/15 02:29:39;;;;;;;0.20;0.20;;;;;;;;;;5009811;28;20765;-66
2022/03/15 02:32:07;;;;;;;0.10;0.10;;;;;;;;;;5009695;28;20642;-65
2022/03/15 02:34:34;;;;;;;0.20;0.20;;;;;;;;;;4994467;28;20722;-65
2022/03/15 02:37:02;;;;;;;0.20;0.20;;;;;;;;;;4995503;28;20696;-65
2022/03/15 02:39:30;;;;;;;0.20;0.20;;;;;;;;;;4995236;28;20632;-65
2022/03/15 02:41:58;;;;;;;0.20;0.20;;;;;;;;;;5001181;28;20631;-65
2022/03/15 02:44:26;;;;;;;0.10;0.10;;;5.70;99.90;;;;;;5009940;28;20631;-65
2022/03/15 02:46:53;;;;;;;0.20;0.20;;;4.30;99.90;;;;;;5010526;28;20722;-65
2022/03/15 02:49:20;;;;;;;0.10;0.10;;;4.30;99.90;;;;;;4998226;28;20631;-65
2022/03/15 02:51:47;;;;;;;0.20;0.20;;;4.30;99.90;;;;;;4995579;28;20682;-65
2022/03/15 02:54:16;;;;;;;0.20;0.20;;;4.30;99.90;;;;;;4999949;28;20734;-66
2022/03/15 02:56:45;;;;;;;0.10;0.10;;;4.30;99.90;;;;;;5010005;28;20665;-65
2022/03/15 02:59:14;;;;;;;0.20;0.20;;;4.30;99.90;;;;;;5015280;28;20626;-65
2022/03/15 03:01:41;;;;;;;0.20;0.20;;;4.30;99.90;;;;;;4994122;28;20623;-65
2022/03/15 03:04:08;;;;;;;0.20;0.20;;;4.30;99.90;;;;;;5006490;28;20604;-65
2022/03/15 03:06:35;;;;;;;0.20;0.20;;;4.30;99.90;;;;;;4996561;28;20662;-65
2022/03/15 03:09:03;;;;;;;0.20;0.20;;;4.30;99.90;;;;;;4993099;28;20619;-65
2022/03/15 03:11:30;;;;;;;0.20;0.20;;;4.30;99.90;;;;;;4996971;28;20692;-65
2022/03/15 03:13:58;;;;;;;0.10;0.10;;;4.30;99.90;;;;;;4994334;28;21029;-65
2022/03/15 03:16:26;;;;;;;0.20;0.20;;;4.30;99.90;;;;;;5000499;28;20632;-65
2022/03/15 03:18:54;;;;;;;0.20;0.20;;;4.30;99.90;;;;;;4994619;28;20653;-65
2022/03/15 03:21:23;;;;;;;0.10;0.10;;;4.30;99.90;;;;;;4991066;28;20628;-65
2022/03/15 03:23:51;;;;;;;0.20;0.20;;;4.30;99.90;;;;;;4985668;28;20734;-65
2022/03/15 03:26:18;;;;;;;0.20;0.20;;;4.30;99.90;;;;;;4996325;28;20628;-65
2022/03/15 03:28:45;;;;;;;0.20;0.20;;;4.30;99.90;;;;;;4995583;28;20642;-65
2022/03/15 03:31:15;;;;;;;0.20;0.20;;;4.30;99.90;;;;;;4992908;28;20642;-65
2022/03/15 03:33:43;;;;;;;0.10;0.10;;;4.30;99.90;;;;;;4990908;28;20611;-65
2022/03/15 03:36:11;;;;;;;0.20;0.20;;;4.30;99.90;;;;;;4984808;28;20636;-65
2022/03/15 03:38:39;;;;;;;0.10;0.10;;;4.30;99.90;;;;;;4998382;28;20713;-65
2022/03/15 03:41:06;;;;;;;0.10;0.10;;;4.30;99.90;;;;;;5009505;28;20608;-65
2022/03/15 03:43:34;;;;;;;0.13;0.13;;;4.30;99.90;;;;;;4990136;28;20710;-65
2022/03/15 03:46:01;;;;;;;0.10;0.10;;;4.20;99.90;;;;;;4994355;28;20623;-65
2022/03/15 03:48:30;;;;;;;0.20;0.20;;;4.20;99.90;;;;;;4991345;28;20688;-65
2022/03/15 03:50:58;;;;;;;0.20;0.20;;;4.20;99.90;;;;;;5009393;28;20685;-65
2022/03/15 03:53:25;;;;;;;0.20;0.20;;;4.20;99.90;;;;;;5008139;28;20635;-65
2022/03/15 03:55:52;;;;;;;0.13;0.13;;;4.20;99.90;;;;;;4989641;28;20627;-65
2022/03/15 03:58:20;;;;;;;0.10;0.10;;;4.20;99.90;;;;;;5001934;28;20668;-65
2022/03/15 04:00:47;;;;;;;0.20;0.20;;;4.20;99.90;;;;;;4996386;28;20633;-65
2022/03/15 04:03:17;;;;;;;0.10;0.10;;;4.20;99.90;;;;;;4997911;28;20615;-65
2022/03/15 04:05:46;;;;;;;0.10;0.10;;;4.20;99.90;;;;;;5003034;28;20631;-65
2022/03/15 04:08:14;;;;;;;0.20;0.20;;;4.20;99.90;;;;;;4991732;28;20671;-65
2022/03/15 04:10:41;;;;;;;0.20;0.20;;;4.10;99.90;;;;;;5004159;28;20706;-65
2022/03/15 04:13:10;;;;;;;0.27;0.27;;;4.10;99.90;;;;;;5003800;28;20615;-65
2022/03/15 04:15:37;;;;;;;0.20;0.20;;;4.10;99.90;;;;;;5002988;28;20607;-65
2022/03/15 04:18:04;;;;;;;0.20;0.20;;;4.10;99.90;;;;;;5003693;28;20656;-65
2022/03/15 04:20:32;;;;;;;0.23;0.23;;;4.10;99.90;;;;;;4987355;28;20631;-65
2022/03/15 04:23:01;;;;;;;0.20;0.20;;;4.10;99.90;;;;;;5001093;28;20611;-65
2022/03/15 04:25:28;;;;;;;0.20;0.20;;;4.10;99.90;;;;;;4985334;28;20628;-65
2022/03/15 04:28:00;;;;;;;0.20;0.20;;;4.10;99.90;;;;;;4989068;28;20758;-65
2022/03/15 04:30:27;;;;;;;0.20;0.20;;;4.20;99.90;;;;;;4983927;28;20615;-65
2022/03/15 04:32:54;;;;;;;0.20;0.20;;;4.20;99.90;;;;;;4998595;28;20625;-65
2022/03/15 04:35:21;;;;;;;0.10;0.10;;;4.10;99.90;;;;;;5002053;28;20611;-65
2022/03/15 04:37:49;;;;;;;0.20;0.20;;;4.10;99.90;;;;;;4989859;28;20762;-65
2022/03/15 04:40:18;;;;;;;0.20;0.20;;;4.20;99.90;;;;;;5002518;28;20614;-65
2022/03/15 04:42:45;;;;;;;0.10;0.10;;;4.00;99.90;;;;;;5006921;28;21156;-65
2022/03/15 04:45:12;;;;;;;0.20;0.20;;;4.10;99.90;;;;;;4993332;28;20654;-65
2022/03/15 04:47:39;;;;;;;0.20;0.20;;;4.00;99.90;;;;;;4989137;28;20659;-65
2022/03/15 04:50:09;;;;;;;0.10;0.10;;;4.10;99.90;;;;;;4992837;28;21067;-65
2022/03/15 04:52:36;;;;;;;0.10;0.10;;;4.20;99.90;;;;;;4989538;28;20615;-65
2022/03/15 04:55:03;;;;;;;0.20;0.20;;;4.20;99.90;;;;;;4989240;28;20698;-65
2022/03/15 04:57:32;;;;;;;0.20;0.20;;;4.30;99.90;;;;;;5002283;28;20805;-65
2022/03/15 04:59:59;;;;;;;0.20;0.20;;;4.10;99.90;;;;;;4984377;28;20644;-65
2022/03/15 05:02:26;;;;;;;0.20;0.20;;;4.20;99.90;;;;;;4989942;28;21004;-65
2022/03/15 05:04:53;;;;;;;0.10;0.10;;;4.10;99.90;;;;;;4988372;28;20626;-65
2022/03/15 05:07:20;;;;;;;0.20;0.20;;;4.10;99.90;;;;;;4993986;28;20751;-65
2022/03/15 05:12:36;;;;;;;0.10;0.10;;;;;;;;;;4986116;28;20667;-65
2022/03/15 05:15:03;;;;;;;0.17;0.17;;;;;;;;;;4996231;28;20604;-65
2022/03/15 05:17:31;;;;;;;0.30;0.30;;;;;;;;;;4993790;28;20749;-65
2022/03/15 05:19:59;;;;;;;0.20;0.20;;;;;;;;;;4997967;28;20603;-65
2022/03/15 05:22:26;;;;;;;0.20;0.20;;;;;;;;;;4985210;28;20624;-65
2022/03/15 05:24:53;;;;;;;0.20;0.20;;;;;;;;;;4990635;28;20628;-65
2022/03/15 05:27:21;;;;;;;0.20;0.20;;;;;;;;;;4988909;28;20647;-65
2022/03/15 05:29:49;;;;;;;0.20;0.20;;;;;;;;;;4991246;28;20640;-65
2022/03/15 05:32:17;;;;;;;0.20;0.20;;;;;;;;;;5009727;28;20727;-67
2022/03/15 05:34:44;;;;;;;0.30;0.30;;;;;;;;;;5007310;28;20639;-65
2022/03/15 05:37:12;;;;;;;0.10;0.10;;;;;;;;;;4987290;28;20672;-65
2022/03/15 05:39:39;;;;;;;0.30;0.30;;;;;;;;;;5000819;28;20648;-65
2022/03/15 05:42:06;;;;;;;0.20;0.20;;;;;;;;;;5003510;28;20599;-65
2022/03/15 05:44:34;;;;;;;0.20;0.20;;;;;;;;;;4992148;28;20628;-65
2022/03/15 05:47:02;;;;;;;0.20;0.20;;;;;;;;;;4983741;28;20711;-65
2022/03/15 05:49:30;;;;;;;0.20;0.20;;;;;;;;;;5001634;28;20614;-65
2022/03/15 05:51:57;;;;;;;0.20;0.20;;;;;;;;;;4982402;28;20644;-66
2022/03/15 05:54:24;;;;;;;0.20;0.20;;;;;;;;;;4978362;28;20673;-65
2022/03/15 05:56:51;;;;;;;0.10;0.10;;;;;;;;;;4997266;28;20667;-66
2022/03/15 05:59:18;;;;;;;0.20;0.20;;;;;;;;;;4990551;28;20694;-66
2022/03/15 06:01:46;;;;;;;0.10;0.10;;;;;;;;;;4999416;28;20604;-65
2022/03/15 06:04:14;;;;;;;0.20;0.20;;;;;;;;;;4991418;28;20675;-65
2022/03/15 06:06:41;;;;;;;0.20;0.20;;;;;;;;;;4987488;28;20626;-65
2022/03/15 06:09:09;;;;;;;0.20;0.20;;;;;;;;;;5001430;28;20706;-68
2022/03/15 06:11:39;;;;;;;0.20;0.20;;;;;;;;;;4988882;28;20620;-65
2022/03/15 06:14:07;;;;;;;0.13;0.13;;;;;;;;;;4985916;28;20651;-66
2022/03/15 06:16:34;;;;;;;0.20;0.20;;;;;;;;;;5004305;28;20689;-65
2022/03/15 06:19:02;;;;;;;0.20;0.20;;;;;;;;;;4985806;28;20714;-66
2022/03/15 06:21:30;;;;;;;0.13;0.13;;;;;;;;;;5005119;28;20608;-66
2022/03/15 06:23:57;;;;;;;0.20;0.20;;;;;;;;;;5001804;28;20611;-66
2022/03/15 06:26:25;;;;;;;0.20;0.20;;;;;;;;;;5001904;28;20611;-66
2022/03/15 06:28:53;;;;;;;0.20;0.20;;;;;;;;;;4986605;28;20687;-65
2022/03/15 06:31:20;;;;;;;0.20;0.20;;;;;;;;;;4993741;28;20628;-66
2022/03/15 06:33:48;;;;;;;0.20;0.20;;;;;;;;;;4991843;28;20642;-66
2022/03/15 06:36:15;;;;;;;0.20;0.20;;;;;;;;;;5003816;28;20719;-65
2022/03/15 06:38:44;;;;;;;0.27;0.27;;;;;;;;;;4987702;28;20675;-66
2022/03/15 06:41:11;;;;;;;0.20;0.20;;;;;;;;;;4984054;28;20632;-66
2022/03/15 06:43:39;;;;;;;0.20;0.20;;;;;;;;;;4987630;28;20645;-66
2022/03/15 06:46:06;;;;;;;0.20;0.20;;;;;;;;;;4991650;28;20623;-66
2022/03/15 06:48:34;;;;;;;0.20;0.20;;;;;;;;;;4997154;28;20659;-66
2022/03/15 06:51:02;;;;;;;0.20;0.20;;;;;;;;;;4992690;28;20628;-65
2022/03/15 06:53:29;;;;;;;0.10;0.10;;;;;;;;;;4999899;28;20623;-66
2022/03/15 06:55:59;;;;;;;0.20;0.20;;;;;;;;;;5006012;28;20615;-66
2022/03/15 06:58:27;;;;;;;0.20;0.20;;;;;;;;;;5005387;28;20668;-66
2022/03/15 07:00:55;;;;;;;0.10;0.10;;;;;;;;;;4987746;28;20681;-65
2022/03/15 07:03:22;;;;;;;0.10;0.10;;;;;;;;;;5007960;28;21166;-66
2022/03/15 07:05:50;;;;;;;0.10;0.10;;;;;;;;;;4989643;28;20684;-66
2022/03/15 07:08:17;;;;;;;0.13;0.13;;;;;;;;;;5005650;28;20646;-65
2022/03/15 07:10:44;;;;;;;0.20;0.20;;;;;;;;;;4990228;28;20607;-66
2022/03/15 07:13:13;;;;;;;0.17;0.17;;;;;;;;;;4987729;28;20632;-66
2022/03/15 07:15:40;;;;;;;0.20;0.20;;;;;;;;;;4992078;28;20718;-66
2022/03/15 07:18:07;;;;;;;0.20;0.20;;;;;;;;;;5000869;28;20648;-65
2022/03/15 07:20:35;;;;;;;0.20;0.20;;;;;;;;;;4994399;28;20707;-66
2022/03/15 07:23:02;;;;;;;0.10;0.10;;;;;;;;;;4987392;28;20719;-65
2022/03/15 07:25:30;;;;;;;0.20;0.20;;;;;;;;;;5008318;28;20607;-66
2022/03/15 07:27:57;;;;;;;0.10;0.10;;;;;;;;;;4991255;28;20686;-65
2022/03/15 07:30:26;;;;;;;0.20;0.20;;;;;;;;;;5003554;28;20667;-65
2022/03/15 07:32:53;;;;;;;0.10;0.10;;;;;;;;;;4985152;28;20636;-65
2022/03/15 07:35:21;;;;;;;0.10;0.10;;;;;;;;;;4992223;28;20727;-66
2022/03/15 07:37:49;;;;;;;0.10;0.10;;;;;;;;;;4995045;28;20678;-66
2022/03/15 07:40:16;;;;;;;0.13;0.13;;;;;;;;;;4990611;28;20656;-65
2022/03/15 07:42:44;;;;;;;0.20;0.20;;;;;;;;;;4995238;28;20626;-65
2022/03/15 07:45:11;;;;;;;0.17;0.17;;;;;;;;;;4990541;28;20726;-65
2022/03/15 07:47:40;;;;;;;0.20;0.20;;;;;;;;;;4992600;28;20662;-65
2022/03/15 07:50:08;;;;;;;0.10;0.10;;;;;;;;;;4987878;28;20706;-66
2022/03/15 07:52:35;;;;;;;0.10;0.10;;;;;;;;;;4993621;28;20717;-65
2022/03/15 07:55:04;;;;;;;0.10;0.10;;;;;;;;;;4989111;28;21260;-66
2022/03/15 07:57:31;;;;;;;0.20;0.20;;;;;;;;;;4994387;28;20762;-65
2022/03/15 07:59:58;;;;;;;0.10;0.10;;;;;;;;;;4991629;28;20665;-65
2022/03/15 08:02:26;;;;;;;0.10;0.10;;;;;;;;;;5008726;28;20611;-65
2022/03/15 08:04:55;;;;;;;0.20;0.20;;;;;;;;;;4991311;28;20635;-65
2022/03/15 08:07:23;;;;;;;0.10;0.10;;;;;;;;;;4994213;28;20659;-66
2022/03/15 08:09:51;;;;;;;0.20;0.20;;;;;;;;;;4992543;28;20619;-65
2022/03/15 08:12:19;;;;;;;0.20;0.20;;;;;;;;;;4993780;28;20666;-65
2022/03/15 08:14:47;;;;;;;0.10;0.10;;;;;;;;;;4992239;28;20623;-66
2022/03/15 08:17:15;;;;;;;0.10;0.10;;;;;;;;;;4991589;28;20686;-65
2022/03/15 08:19:42;;;;;;;0.10;0.10;;;;;;;;;;4995116;28;20659;-66
2022/03/15 08:22:11;;;;;;;0.20;0.20;;;;;;;;;;5007056;28;20701;-65
2022/03/15 08:24:38;;;;;;;0.13;0.13;;;;;;;;;;4991652;28;20641;-65
2022/03/15 08:27:06;;;;;;;0.10;0.10;;;;;;;;;;4991143;28;21227;-65
2022/03/15 08:29:33;;;;;;;0.20;0.20;;;;;;;;;;4995695;28;20780;-66
2022/03/15 08:32:00;;;;;;;0.10;0.10;;;;;;;;;;5003230;28;20608;-65
2022/03/15 08:34:28;;;;;;;0.10;0.10;;;;;;;;;;5003377;28;20646;-65
2022/03/15 08:36:55;;;;;;;0.10;0.10;;;;;;;;;;5006473;28;20971;-65
2022/03/15 08:39:24;;;;;;;0.10;0.10;;;9.00;99.90;;;;;;4987240;28;20671;-65
2022/03/15 08:41:51;;;;;;;0.10;0.10;;;9.10;99.90;;;;;;5004945;28;20615;-65
2022/03/15 08:44:19;;;;;;;0.13;0.13;;;9.10;99.90;;;;;;4992164;28;20629;-65
2022/03/15 08:46:47;;;;;;;0.10;0.10;;;9.10;99.90;;;;;;4994190;28;20635;-65
2022/03/15 08:49:15;;;;;;;0.10;0.10;;;9.10;99.90;;;;;;4992932;28;20615;-65
2022/03/15 08:51:43;;;;;;;0.10;0.10;;;9.20;99.90;;;;;;4992305;28;20643;-65
2022/03/15 08:54:10;;;;;;;0.10;0.10;;;;;;;;;;4993787;28;20639;-66
2022/03/15 08:56:41;;;;;;;0.10;0.10;;;;;;;;;;4992631;28;20647;-65
2022/03/15 08:59:09;;;;;;;0.17;0.17;;;;;;;;;;4996803;28;20674;-65
2022/03/15 09:01:37;;;;;;;0.10;0.10;;;;;;;;;;5009205;28;20603;-65
2022/03/15 09:04:04;;;;;;;0.10;0.10;;;;;;;;;;4995346;28;20735;-66
2022/03/15 09:06:32;;;;;;;0.10;0.10;;;;;;;;;;5005954;28;20610;-65
2022/03/15 09:09:00;;;;;;;0.10;0.10;;;;;;;;;;4989218;28;20722;-65
2022/03/15 09:11:27;;;;;;;0.10;0.10;;;;;;;;;;5000611;28;20627;-65
2022/03/15 09:13:56;;;;;;;0.10;0.10;;;;;;;;;;5004608;28;20658;-65
2022/03/15 09:16:23;;;;;;;0.10;0.10;;;;;;;;;;4991638;28;20662;-65
2022/03/15 09:18:51;;;;;;;0.17;0.17;;;;;;;;;;5009266;28;20702;-65
2022/03/15 09:21:19;;;;;;;0.10;0.10;;;9.80;99.90;;;;;;4988066;28;20664;-65
2022/03/15 09:23:46;;;;;;;0.10;0.10;;;9.80;99.90;;;;;;4988736;28;20686;-65
2022/03/15 09:26:14;;;;;;;0.10;0.10;;;;;;;;;;4988506;28;20634;-65
2022/03/15 09:28:43;;;;;;;0.20;0.20;;;;;;;;;;5005871;28;20647;-66
2022/03/15 09:31:11;;;;;;;0.10;0.10;;;;;;;;;;4989378;28;20619;-65
2022/03/15 09:33:39;;;;;;;0.10;0.10;;;;;;;;;;4987511;28;20640;-65
2022/03/15 09:36:07;;;;;;;0.10;0.10;;;;;;;;;;4990611;28;20705;-65
2022/03/15 09:38:34;;;;;;;0.10;0.10;;;;;;;;;;4991576;28;20770;-66
2022/03/15 09:41:04;;;;;;;0.10;0.10;;;;;;;;;;4987700;28;20671;-65
2022/03/15 09:43:35;;;;;;;0.10;0.10;;;;;;;;;;5004807;28;20611;-65
2022/03/15 09:46:04;;;;;;;0.10;0.10;;;;;;;;;;4990046;28;20637;-66
2022/03/15 09:48:33;;;;;;;0.10;0.10;;;;;;;;;;4995735;28;20659;-66
2022/03/15 09:51:01;;;;;;;0.10;0.10;;;;;;;;;;4992039;28;20624;-66
2022/03/15 09:53:28;;;;;;;0.10;0.10;;;;;;;;;;4989874;28;20747;-66
2022/03/15 09:55:56;;;;;;;0.10;0.10;;;;;;;;;;4990061;28;20628;-65
2022/03/15 09:58:24;;;;;;;0.10;0.10;;;;;;;;;;4992991;28;20220;-66
2022/03/15 10:00:53;;;;;;;0.20;0.20;;;;;;;;;;5003902;28;20323;-66
2022/03/15 10:03:20;;;;;;;0.17;0.17;;;;;;;;;;4993937;28;20209;-65
2022/03/15 10:05:50;;;;;;;0.10;0.10;;;;;;;;;;4987660;28;20208;-65
2022/03/15 10:08:18;;;;;;;0.10;0.10;;;;;;;;;;4990469;28;20252;-65
2022/03/15 10:10:49;;;;;;;0.10;0.10;;;;;;;;;;5002663;28;20193;-66
2022/03/15 10:13:16;;;;;;;0.10;0.10;;;;;;;;;;4989354;28;21286;-65
2022/03/15 10:15:51;;;;;;;0.10;0.10;;;;;;;;;;4988226;28;20627;-66
2022/03/15 10:18:19;;;;;;;0.20;0.20;;;;;;;;;;4989126;28;20243;-66
2022/03/15 10:20:49;;;;;;;0.20;0.20;;;;;;;;;;5001497;28;20248;-66
2022/03/15 10:23:18;;;;;;;0.10;0.10;;;;;;;;;;4992254;28;20268;-66
2022/03/15 10:25:48;;;;;;;0.10;0.10;;;;;;;;;;5005018;28;20224;-66
2022/03/15 10:28:16;;;;;;;0.10;0.10;;;;;;;;;;4994411;28;20224;-66
2022/03/15 10:30:44;;;;;;;0.10;0.10;;;;;;;;;;4988788;28;20201;-66
2022/03/15 10:33:12;;;;;;;0.10;0.10;;;;;;;;;;5008454;28;20196;-66
2022/03/15 10:35:40;;;;;;;0.10;0.10;;;;;;;;;;4991196;28;20239;-66
2022/03/15 10:38:09;;;;;;;0.10;0.10;;;;;;;;;;4989468;28;20223;-66
2022/03/15 10:40:38;;;;;;;0.10;0.10;;;;;;;;;;5003130;28;20229;-65
2022/03/15 10:43:07;;;;;;;0.10;0.10;;;;;;;;;;4993749;28;20246;-66
2022/03/15 10:45:35;;;;;;;0.10;0.10;;;;;;;;;;4992804;28;20199;-66
2022/03/15 10:48:04;;;;;;;0.30;0.30;;;;;;;;;;4991378;28;20217;-66
2022/03/15 10:50:33;;;;;;;0.10;0.10;;;;;;;;;;4991185;28;20588;-66
2022/03/15 10:53:07;;;;;;;0.10;0.10;;;;;;;;;;5010041;28;20200;-66
2022/03/15 10:55:37;;;;;;;0.10;0.10;;;;;;;;;;5012368;28;20216;-66
2022/03/15 10:58:07;;;;;;;0.10;0.10;;;;;;;;;;5013854;28;20257;-66
2022/03/15 11:00:36;;;;;;;0.10;0.10;;;;;;;;;;4996205;28;20232;-65
2022/03/15 11:03:06;;;;;;;0.10;0.10;;;;;;;;;;4991749;28;20208;-65
2022/03/15 11:05:34;;;;;;;0.10;0.10;;;;;;;;;;4992536;28;20212;-65
2022/03/15 11:08:05;;;;;;;0.10;0.10;;;;;;;;;;5006315;28;20232;-65
2022/03/15 11:10:33;;;;;;;0.10;0.10;;;;;;;;;;4989683;28;20259;-65
2022/03/15 11:13:06;;;;;;;0.10;0.10;;;;;;;;;;4989857;28;20200;-65
2022/03/15 11:15:37;;;;;;;0.10;0.10;;;;;;;;;;4993731;28;20232;-65
2022/03/15 11:18:05;;;;;;;0.10;0.10;;;;;;;;;;4987465;28;20222;-65
2022/03/15 11:20:35;;;;;;;0.17;0.17;;;;;;;;;;5005717;28;20220;-66
2022/03/15 11:23:03;;;;;;;0.10;0.10;;;;;;;;;;4991620;28;20211;-65
2022/03/15 11:25:33;;;;;;;0.10;0.10;;;;;;;;;;4993764;28;20204;-65
2022/03/15 11:28:04;;;;;;;0.10;0.10;;;;;;;;;;4994028;28;20303;-65
2022/03/15 11:30:32;;;;;;;0.10;0.10;;;;;;;;;;4987753;28;20212;-66
2022/03/15 11:33:01;;;;;;;0.10;0.10;;;;;;;;;;4996169;28;20205;-65
2022/03/15 11:35:31;;;;;;;0.10;0.10;;;;;;;;;;4985216;28;20216;-65
2022/03/15 11:38:00;;;;;;;0.10;0.10;;;;;;;;;;4994747;28;20239;-65
2022/03/15 11:40:28;;;;;;;0.10;0.10;;;;;;;;;;4992637;28;20311;-65
2022/03/15 11:43:00;;;;;;;0.10;0.10;;;;;;;;;;5003862;28;20212;-65
2022/03/15 11:45:31;;;;;;;0.10;0.10;;;;;;;;;;5007610;28;20255;-65
2022/03/15 11:48:00;;;;;;;0.10;0.10;;;;;;;;;;5007374;28;20276;-65
2022/03/15 11:50:32;;;;;;;0.10;0.10;;;;;;;;;;4990331;28;20208;-65
2022/03/15 11:53:03;;;;;;;0.10;0.10;;;;;;;;;;4988708;28;20208;-65
2022/03/15 11:55:35;;;;;;;0.10;0.10;;;;;;;;;;4988321;28;20205;-65
2022/03/15 11:58:04;;;;;;;0.10;0.10;;;;;;;;;;4989194;28;20276;-65
2022/03/15 12:00:38;;;;;;;0.10;0.10;;;;;;;;;;4990478;28;20222;-65
2022/03/15 12:03:07;;;;;;;0.10;0.10;;;;;;;;;;4993381;28;20208;-65
2022/03/15 12:05:42;;;;;;;0.10;0.10;;;;;;;;;;4991288;28;20219;-65
2022/03/15 12:08:12;;;;;;;0.10;0.10;;;;;;;;;;5046851;23;20222;-75
2022/03/15 12:10:41;;;;;;;0.10;0.10;;;;;;;;;;5041855;28;20195;-75
2022/03/15 12:13:09;;;;;;;0.10;0.10;;;;;;;;;;5046186;28;20191;-75
2022/03/15 12:15:39;;;;;;;0.10;0.10;;;;;;;;;;5047929;28;20290;-75
2022/03/15 12:18:18;;;;;;;0.10;0.10;;;;;;;;;;5044129;28;20214;-75
2022/03/15 12:20:46;;;;;;;0.10;0.10;;;;;;;;;;5029779;28;20225;-75
2022/03/15 12:23:19;;;;;;;0.10;0.10;;;;;;;;;;5028730;28;20290;-75
2022/03/15 12:25:53;;;;;;;0.10;0.10;;;;;;;;;;5028428;28;20219;-75
2022/03/15 12:28:27;;;;;;;0.10;0.10;;;;;;;;;;5046405;28;20214;-75
2022/03/15 12:30:56;;;;;;;0.10;0.10;;;;;;;;;;5028210;28;20195;-76
2022/03/15 12:33:27;;;;;;;0.00;0.00;;;;;;;;;;5044470;28;20215;-75
2022/03/15 12:36:02;;;;;;;0.00;0.00;;;;;;;;;;5043913;28;20317;-75
2022/03/15 12:38:34;;;;;;;0.03;0.03;;;;;;;;;;5025664;28;20203;-75
2022/03/15 12:41:02;;;;;;;0.00;0.00;;;;;;;;;;5023814;28;20284;-75
2022/03/15 12:43:31;;;;;;;0.10;0.10;;;;;;;;;;5042688;28;20218;-75
2022/03/15 12:46:02;;;;;;;0.10;0.10;;;;;;;;;;5025649;28;20755;-75
2022/03/15 12:48:31;;;;;;;0.10;0.10;;;;;;;;;;5041436;28;20275;-75
2022/03/15 12:51:01;;;;;;;0.10;0.10;;;;;;;;;;5027600;28;20195;-75
2022/03/15 12:53:35;;;;;;;0.10;0.10;;;;;;;;;;5026339;28;20211;-75
2022/03/15 12:56:03;;;;;;;0.10;0.10;;;;;;;;;;5026305;28;20214;-75
2022/03/15 12:58:31;;;;;;;0.10;0.10;;;;;;;;;;5023607;28;20209;-75
2022/03/15 13:00:58;;;;;;;0.10;0.10;;;;;;;;;;5029506;28;20230;-75
2022/03/15 13:03:27;;;;;;;0.10;0.10;;;;;;;;;;5029500;28;20207;-76
2022/03/15 13:05:57;;;;;;;0.10;0.10;;;;;;;;;;5024756;28;20227;-75
2022/03/15 13:08:25;;;;;;;0.00;0.00;;;;;;;;;;5044018;28;20214;-75
2022/03/15 13:10:53;;;;;;;0.10;0.10;;;;;;;;;;5038964;28;20196;-75
2022/03/15 13:13:27;;;;;;;0.10;0.10;;;;;;;;;;5025599;28;20226;-75
2022/03/15 13:15:57;;;;;;;0.10;0.10;;;;;;;;;;5021878;28;20208;-76
2022/03/15 13:18:24;;;;;;;0.10;0.10;;;;;;;;;;5025005;28;20223;-75
2022/03/15 13:21:00;;;;;;;0.10;0.10;;;;;;;;;;5026643;28;20590;-75
2022/03/15 13:23:29;;;;;;;0.10;0.10;;;;;;;;;;5038413;28;20223;-75
2022/03/15 13:26:04;;;;;;;0.10;0.10;;;;;;;;;;5025452;28;20231;-75
2022/03/15 13:28:32;;;;;;;0.10;0.10;;;;;;;;;;5041548;28;20203;-75
2022/03/15 13:31:01;;;;;;;0.10;0.10;;;;;;;;;;5043071;28;20195;-75
2022/03/15 13:33:32;;;;;;;0.10;0.10;;;;;;;;;;5043044;28;20274;-75
2022/03/15 13:36:05;;;;;;;0.10;0.10;;;;;;;;;;5040757;28;20277;-75
2022/03/15 13:38:36;;;;;;;0.10;0.10;;;;;;;;;;5042298;28;20207;-75
2022/03/15 13:41:08;;;;;;;0.10;0.10;;;;;;;;;;5025474;28;20254;-75
2022/03/15 13:43:42;;;;;;;0.10;0.10;;;;;;;;;;5023760;28;20207;-75
2022/03/15 13:46:10;;;;;;;0.10;0.10;;;;;;;;;;5023419;28;20285;-75
2022/03/15 13:48:38;;;;;;;0.00;0.00;;;;;;;;;;5042670;28;20264;-75
2022/03/15 13:51:10;;;;;;;0.00;0.00;;;;;;;;;;5026942;28;20316;-75
2022/03/15 13:53:38;;;;;;;0.10;0.10;;;;;;;;;;5026419;28;20230;-75
2022/03/15 13:56:13;;;;;;;0.10;0.10;;;;;;;;;;5043115;28;20226;-75
2022/03/15 13:58:45;;;;;;;0.00;0.00;;;;;;;;;;5043038;28;20206;-75
2022/03/15 14:01:14;;;;;;;0.10;0.10;;;;;;;;;;5040946;28;20631;-75
2022/03/15 14:03:41;;;;;;;0.10;0.10;;;;;;;;;;5017171;28;20207;-75
2022/03/15 14:06:12;;;;;;;0.10;0.10;;;;;;;;;;5013605;28;20253;-75
2022/03/15 14:08:48;;;;;;;0.10;0.10;;;;;;;;;;5021275;28;20217;-76
2022/03/15 14:11:16;;;;;;;0.00;0.00;;;;;;;;;;5023546;28;20191;-75
2022/03/15 14:14:04;;;;;;;0.10;0.10;;;;;;;;;;5020717;28;20207;-75
2022/03/15 14:16:39;;;;;;;0.10;0.10;;;;;;;;;;5039616;28;20681;-75
2022/03/15 14:19:09;;;;;;;0.10;0.10;;;;;;;;;;5026663;28;20700;-76
2022/03/15 14:21:41;;;;;;;0.10;0.10;;;;;;;;;;5023021;28;20229;-75
2022/03/15 14:24:10;;;;;;;0.10;0.10;;;;;;;;;;5029252;28;20232;-75
2022/03/15 14:26:39;;;;;;;0.00;0.00;;;;;;;;;;5023959;28;20210;-76
2022/03/15 14:29:09;;;;;;;0.10;0.10;;;;;;;;;;5021149;28;20207;-75
2022/03/15 14:31:40;;;;;;;0.10;0.10;;;;;;;;;;5029661;28;20265;-75